sensor_id;sensor_type;location;lat;lon;timestamp;temperature;humidity
58638;DHT22;54976;51.510;7.522;2023-07-02T00:01:33;17.90;98.60
58638;DHT22;54976;51.510;7.522;2023-07-02T00:04:34;17.90;98.70
58638;DHT22;54976;51.510;7.522;2023-07-02T00:07:35;17.90;98.70
58638;DHT22;54976;51.510;7.522;2023-07-02T00:10:36;17.90;98.60
58638;DHT22;54976;51.510;7.522;2023-07-02T00:13:37;17.90;98.50
58638;DHT22;54976;51.510;7.522;2023-07-02T00:16:42;18.00;98.60
58638;DHT22;54976;51.510;7.522;2023-07-02T00:19:43;18.00;98.60
58638;DHT22;54976;51.510;7.522;2023-07-02T00:22:48;17.90;98.60
58638;DHT22;54976;51.510;7.522;2023-07-02T00:25:49;17.90;98.50
58638;DHT22;54976;51.510;7.522;2023-07-02T00:28:49;17.90;98.60
58638;DHT22;54976;51.510;7.522;2023-07-02T00:31:50;17.90;98.40
58638;DHT22;54976;51.510;7.522;2023-07-02T00:34:50;17.90;98.40
58638;DHT22;54976;51.510;7.522;2023-07-02T00:37:51;17.90;98.40
58638;DHT22;54976;51.510;7.522;2023-07-02T00:40:52;18.00;98.50
58638;DHT22;54976;51.510;7.522;2023-07-02T00:43:52;17.90;98.40
58638;DHT22;54976;51.510;7.522;2023-07-02T00:46:55;17.90;98.30
58638;DHT22;54976;51.510;7.522;2023-07-02T00:49:55;17.90;98.30
58638;DHT22;54976;51.510;7.522;2023-07-02T00:52:56;17.90;98.40
58638;DHT22;54976;51.510;7.522;2023-07-02T00:55:56;17.90;98.40
58638;DHT22;54976;51.510;7.522;2023-07-02T00:58:57;17.90;98.40
58638;DHT22;54976;51.510;7.522;2023-07-02T01:01:58;17.90;98.30
58638;DHT22;54976;51.510;7.522;2023-07-02T01:04:59;17.90;98.30
58638;DHT22;54976;51.510;7.522;2023-07-02T01:08:00;17.80;98.20
58638;DHT22;54976;51.510;7.522;2023-07-02T01:11:00;17.90;98.30
58638;DHT22;54976;51.510;7.522;2023-07-02T01:14:22;17.80;98.20
58638;DHT22;54976;51.510;7.522;2023-07-02T01:17:23;17.90;98.10
58638;DHT22;54976;51.510;7.522;2023-07-02T01:20:24;17.80;98.10
58638;DHT22;54976;51.510;7.522;2023-07-02T01:23:27;17.80;98.20
58638;DHT22;54976;51.510;7.522;2023-07-02T01:26:31;17.80;98.10
58638;DHT22;54976;51.510;7.522;2023-07-02T01:29:35;17.80;98.00
58638;DHT22;54976;51.510;7.522;2023-07-02T01:32:37;17.80;98.00
58638;DHT22;54976;51.510;7.522;2023-07-02T01:35:39;17.70;98.00
58638;DHT22;54976;51.510;7.522;2023-07-02T01:38:39;17.70;97.90
58638;DHT22;54976;51.510;7.522;2023-07-02T01:41:54;17.60;98.10
58638;DHT22;54976;51.510;7.522;2023-07-02T01:44:55;17.70;98.10
58638;DHT22;54976;51.510;7.522;2023-07-02T01:47:55;17.50;97.90
58638;DHT22;54976;51.510;7.522;2023-07-02T01:50:56;17.40;98.00
58638;DHT22;54976;51.510;7.522;2023-07-02T01:53:56;17.40;98.10
58638;DHT22;54976;51.510;7.522;2023-07-02T01:56:57;17.30;98.10
58638;DHT22;54976;51.510;7.522;2023-07-02T01:59:58;17.30;98.20
58638;DHT22;54976;51.510;7.522;2023-07-02T02:02:59;17.30;98.50
58638;DHT22;54976;51.510;7.522;2023-07-02T02:05:59;17.20;98.30
58638;DHT22;54976;51.510;7.522;2023-07-02T02:09:00;17.20;98.20
58638;DHT22;54976;51.510;7.522;2023-07-02T02:12:01;17.10;98.20
58638;DHT22;54976;51.510;7.522;2023-07-02T02:15:01;17.10;98.30
58638;DHT22;54976;51.510;7.522;2023-07-02T02:18:02;17.10;98.30
58638;DHT22;54976;51.510;7.522;2023-07-02T02:21:03;17.20;98.20
58638;DHT22;54976;51.510;7.522;2023-07-02T02:24:03;17.20;98.20
58638;DHT22;54976;51.510;7.522;2023-07-02T02:27:05;17.20;98.10
58638;DHT22;54976;51.510;7.522;2023-07-02T02:30:07;17.20;97.90
58638;DHT22;54976;51.510;7.522;2023-07-02T02:33:07;17.20;97.90
58638;DHT22;54976;51.510;7.522;2023-07-02T02:36:08;17.10;97.70
58638;DHT22;54976;51.510;7.522;2023-07-02T02:39:08;17.10;97.70
58638;DHT22;54976;51.510;7.522;2023-07-02T02:42:10;17.20;97.80
58638;DHT22;54976;51.510;7.522;2023-07-02T02:45:10;17.20;97.60
58638;DHT22;54976;51.510;7.522;2023-07-02T02:48:11;17.10;97.30
58638;DHT22;54976;51.510;7.522;2023-07-02T02:51:12;17.20;97.40
58638;DHT22;54976;51.510;7.522;2023-07-02T02:54:12;17.10;97.40
58638;DHT22;54976;51.510;7.522;2023-07-02T02:57:13;17.10;97.00
58638;DHT22;54976;51.510;7.522;2023-07-02T03:00:14;17.10;96.80
58638;DHT22;54976;51.510;7.522;2023-07-02T03:03:14;17.00;96.70
58638;DHT22;54976;51.510;7.522;2023-07-02T03:06:17;17.10;96.60
58638;DHT22;54976;51.510;7.522;2023-07-02T03:09:17;17.10;96.40
58638;DHT22;54976;51.510;7.522;2023-07-02T03:12:18;17.10;96.30
58638;DHT22;54976;51.510;7.522;2023-07-02T03:15:19;17.10;96.10
58638;DHT22;54976;51.510;7.522;2023-07-02T03:18:20;17.10;96.00
58638;DHT22;54976;51.510;7.522;2023-07-02T03:21:20;17.10;96.00
58638;DHT22;54976;51.510;7.522;2023-07-02T03:24:21;17.10;96.20
58638;DHT22;54976;51.510;7.522;2023-07-02T03:27:21;17.10;95.90
58638;DHT22;54976;51.510;7.522;2023-07-02T03:30:22;17.10;95.80
58638;DHT22;54976;51.510;7.522;2023-07-02T03:33:23;17.20;95.80
58638;DHT22;54976;51.510;7.522;2023-07-02T03:36:23;17.10;95.80
58638;DHT22;54976;51.510;7.522;2023-07-02T03:39:24;17.10;95.80
58638;DHT22;54976;51.510;7.522;2023-07-02T03:42:24;17.10;95.50
58638;DHT22;54976;51.510;7.522;2023-07-02T03:45:25;17.00;95.50
58638;DHT22;54976;51.510;7.522;2023-07-02T03:48:26;17.00;95.40
58638;DHT22;54976;51.510;7.522;2023-07-02T03:51:26;17.20;95.50
58638;DHT22;54976;51.510;7.522;2023-07-02T03:54:27;17.00;95.40
58638;DHT22;54976;51.510;7.522;2023-07-02T03:57:28;17.00;95.50
58638;DHT22;54976;51.510;7.522;2023-07-02T04:00:28;17.10;95.50
58638;DHT22;54976;51.510;7.522;2023-07-02T04:03:29;17.20;95.50
58638;DHT22;54976;51.510;7.522;2023-07-02T04:06:30;17.10;95.30
58638;DHT22;54976;51.510;7.522;2023-07-02T04:09:30;17.10;95.30
58638;DHT22;54976;51.510;7.522;2023-07-02T04:12:33;17.20;95.30
58638;DHT22;54976;51.510;7.522;2023-07-02T04:15:34;17.10;95.20
58638;DHT22;54976;51.510;7.522;2023-07-02T04:18:35;17.10;95.30
58638;DHT22;54976;51.510;7.522;2023-07-02T04:21:36;17.10;95.40
58638;DHT22;54976;51.510;7.522;2023-07-02T04:24:36;17.10;95.40
58638;DHT22;54976;51.510;7.522;2023-07-02T04:27:37;17.10;95.40
58638;DHT22;54976;51.510;7.522;2023-07-02T04:30:37;17.20;95.40
58638;DHT22;54976;51.510;7.522;2023-07-02T04:33:38;17.20;95.20
58638;DHT22;54976;51.510;7.522;2023-07-02T04:36:39;17.20;95.70
58638;DHT22;54976;51.510;7.522;2023-07-02T04:39:40;17.20;95.20
58638;DHT22;54976;51.510;7.522;2023-07-02T04:42:42;17.20;95.30
58638;DHT22;54976;51.510;7.522;2023-07-02T04:45:47;17.20;95.40
58638;DHT22;54976;51.510;7.522;2023-07-02T04:48:48;17.30;95.40
58638;DHT22;54976;51.510;7.522;2023-07-02T04:51:49;17.10;95.30
58638;DHT22;54976;51.510;7.522;2023-07-02T04:54:50;17.10;95.40
58638;DHT22;54976;51.510;7.522;2023-07-02T04:57:50;17.10;95.40
58638;DHT22;54976;51.510;7.522;2023-07-02T05:00:51;17.10;95.50
58638;DHT22;54976;51.510;7.522;2023-07-02T05:03:52;17.10;95.70
58638;DHT22;54976;51.510;7.522;2023-07-02T05:06:53;17.20;95.70
58638;DHT22;54976;51.510;7.522;2023-07-02T05:09:53;17.20;95.40
58638;DHT22;54976;51.510;7.522;2023-07-02T05:12:54;17.20;95.40
58638;DHT22;54976;51.510;7.522;2023-07-02T05:15:54;17.20;95.40
58638;DHT22;54976;51.510;7.522;2023-07-02T05:18:55;17.20;95.50
58638;DHT22;54976;51.510;7.522;2023-07-02T05:21:56;17.20;95.50
58638;DHT22;54976;51.510;7.522;2023-07-02T05:24:56;17.30;95.50
58638;DHT22;54976;51.510;7.522;2023-07-02T05:27:57;17.40;95.30
58638;DHT22;54976;51.510;7.522;2023-07-02T05:30:57;17.40;95.40
58638;DHT22;54976;51.510;7.522;2023-07-02T05:33:58;17.40;95.20
58638;DHT22;54976;51.510;7.522;2023-07-02T05:36:58;17.40;95.10
58638;DHT22;54976;51.510;7.522;2023-07-02T05:39:59;17.50;95.00
58638;DHT22;54976;51.510;7.522;2023-07-02T05:43:00;17.60;95.20
58638;DHT22;54976;51.510;7.522;2023-07-02T05:46:00;17.60;95.20
58638;DHT22;54976;51.510;7.522;2023-07-02T05:49:01;17.70;95.10
58638;DHT22;54976;51.510;7.522;2023-07-02T05:52:02;17.70;94.70
58638;DHT22;54976;51.510;7.522;2023-07-02T05:55:03;17.90;94.80
58638;DHT22;54976;51.510;7.522;2023-07-02T05:58:03;18.00;94.30
58638;DHT22;54976;51.510;7.522;2023-07-02T06:01:04;18.10;94.10
58638;DHT22;54976;51.510;7.522;2023-07-02T06:04:06;18.30;93.90
58638;DHT22;54976;51.510;7.522;2023-07-02T06:07:06;18.30;93.30
58638;DHT22;54976;51.510;7.522;2023-07-02T06:10:07;18.40;93.70
58638;DHT22;54976;51.510;7.522;2023-07-02T06:13:08;18.30;93.10
58638;DHT22;54976;51.510;7.522;2023-07-02T06:16:09;18.20;93.40
58638;DHT22;54976;51.510;7.522;2023-07-02T06:19:09;18.20;93.30
58638;DHT22;54976;51.510;7.522;2023-07-02T06:22:10;18.20;93.20
58638;DHT22;54976;51.510;7.522;2023-07-02T06:25:11;18.30;93.00
58638;DHT22;54976;51.510;7.522;2023-07-02T06:28:11;18.40;92.90
58638;DHT22;54976;51.510;7.522;2023-07-02T06:31:12;18.50;92.70
58638;DHT22;54976;51.510;7.522;2023-07-02T06:34:13;18.60;92.30
58638;DHT22;54976;51.510;7.522;2023-07-02T06:37:14;18.70;92.10
58638;DHT22;54976;51.510;7.522;2023-07-02T06:40:15;18.60;91.60
58638;DHT22;54976;51.510;7.522;2023-07-02T06:43:15;18.80;91.90
58638;DHT22;54976;51.510;7.522;2023-07-02T06:46:16;19.00;91.70
58638;DHT22;54976;51.510;7.522;2023-07-02T06:49:17;19.10;90.90
58638;DHT22;54976;51.510;7.522;2023-07-02T06:52:17;19.20;90.50
58638;DHT22;54976;51.510;7.522;2023-07-02T06:55:18;19.30;89.70
58638;DHT22;54976;51.510;7.522;2023-07-02T06:58:19;19.50;89.20
58638;DHT22;54976;51.510;7.522;2023-07-02T07:01:20;19.70;87.40
58638;DHT22;54976;51.510;7.522;2023-07-02T07:04:20;19.70;86.50
58638;DHT22;54976;51.510;7.522;2023-07-02T07:07:21;19.90;87.60
58638;DHT22;54976;51.510;7.522;2023-07-02T07:10:22;20.00;85.20
58638;DHT22;54976;51.510;7.522;2023-07-02T07:13:22;20.20;83.10
58638;DHT22;54976;51.510;7.522;2023-07-02T07:16:23;20.30;78.30
58638;DHT22;54976;51.510;7.522;2023-07-02T07:19:24;20.20;79.10
58638;DHT22;54976;51.510;7.522;2023-07-02T07:22:24;20.00;79.30
58638;DHT22;54976;51.510;7.522;2023-07-02T07:25:25;19.80;80.20
58638;DHT22;54976;51.510;7.522;2023-07-02T07:28:25;19.80;79.00
58638;DHT22;54976;51.510;7.522;2023-07-02T07:31:26;19.60;75.10
58638;DHT22;54976;51.510;7.522;2023-07-02T07:34:26;19.70;74.50
58638;DHT22;54976;51.510;7.522;2023-07-02T07:37:28;19.70;75.70
58638;DHT22;54976;51.510;7.522;2023-07-02T07:40:28;19.80;77.20
58638;DHT22;54976;51.510;7.522;2023-07-02T07:43:29;19.90;75.90
58638;DHT22;54976;51.510;7.522;2023-07-02T07:46:29;20.70;68.60
58638;DHT22;54976;51.510;7.522;2023-07-02T07:49:30;20.80;65.00
58638;DHT22;54976;51.510;7.522;2023-07-02T07:52:31;21.00;63.40
58638;DHT22;54976;51.510;7.522;2023-07-02T07:55:31;21.50;60.10
58638;DHT22;54976;51.510;7.522;2023-07-02T07:58:32;22.00;59.00
58638;DHT22;54976;51.510;7.522;2023-07-02T08:01:32;22.10;57.50
58638;DHT22;54976;51.510;7.522;2023-07-02T08:04:33;21.60;56.50
58638;DHT22;54976;51.510;7.522;2023-07-02T08:07:34;21.30;56.50
58638;DHT22;54976;51.510;7.522;2023-07-02T08:10:34;21.40;57.50
58638;DHT22;54976;51.510;7.522;2023-07-02T08:13:35;21.30;56.40
58638;DHT22;54976;51.510;7.522;2023-07-02T08:16:35;21.60;57.80
58638;DHT22;54976;51.510;7.522;2023-07-02T08:19:36;21.40;55.20
58638;DHT22;54976;51.510;7.522;2023-07-02T08:22:40;21.00;55.70
58638;DHT22;54976;51.510;7.522;2023-07-02T08:25:41;20.80;57.10
58638;DHT22;54976;51.510;7.522;2023-07-02T08:28:41;20.60;56.90
58638;DHT22;54976;51.510;7.522;2023-07-02T08:31:42;20.40;57.50
58638;DHT22;54976;51.510;7.522;2023-07-02T08:34:43;20.30;57.20
58638;DHT22;54976;51.510;7.522;2023-07-02T08:37:44;20.10;57.30
58638;DHT22;54976;51.510;7.522;2023-07-02T08:40:44;20.10;56.30
58638;DHT22;54976;51.510;7.522;2023-07-02T08:43:45;20.50;56.60
58638;DHT22;54976;51.510;7.522;2023-07-02T08:46:46;20.90;56.50
58638;DHT22;54976;51.510;7.522;2023-07-02T08:49:50;21.20;56.00
58638;DHT22;54976;51.510;7.522;2023-07-02T08:52:53;21.20;55.60
58638;DHT22;54976;51.510;7.522;2023-07-02T08:55:54;20.90;55.70
58638;DHT22;54976;51.510;7.522;2023-07-02T08:58:55;20.90;55.10
58638;DHT22;54976;51.510;7.522;2023-07-02T09:01:55;20.70;54.80
58638;DHT22;54976;51.510;7.522;2023-07-02T09:05:03;20.60;54.70
58638;DHT22;54976;51.510;7.522;2023-07-02T09:08:04;20.50;54.10
58638;DHT22;54976;51.510;7.522;2023-07-02T09:11:15;20.50;54.70
58638;DHT22;54976;51.510;7.522;2023-07-02T09:14:30;20.40;54.70
58638;DHT22;54976;51.510;7.522;2023-07-02T09:17:33;20.50;55.20
58638;DHT22;54976;51.510;7.522;2023-07-02T09:20:33;20.70;54.00
58638;DHT22;54976;51.510;7.522;2023-07-02T09:23:35;21.30;52.10
58638;DHT22;54976;51.510;7.522;2023-07-02T09:26:38;22.00;52.20
58638;DHT22;54976;51.510;7.522;2023-07-02T09:29:41;22.10;50.30
58638;DHT22;54976;51.510;7.522;2023-07-02T09:32:43;21.80;49.50
58638;DHT22;54976;51.510;7.522;2023-07-02T09:35:44;21.60;50.10
58638;DHT22;54976;51.510;7.522;2023-07-02T09:38:45;21.30;49.80
58638;DHT22;54976;51.510;7.522;2023-07-02T09:41:51;21.30;50.60
58638;DHT22;54976;51.510;7.522;2023-07-02T09:44:52;21.40;50.20
58638;DHT22;54976;51.510;7.522;2023-07-02T09:47:55;21.80;50.10
58638;DHT22;54976;51.510;7.522;2023-07-02T09:50:58;22.20;48.80
58638;DHT22;54976;51.510;7.522;2023-07-02T09:53:59;22.40;48.50
58638;DHT22;54976;51.510;7.522;2023-07-02T09:57:00;22.50;47.00
58638;DHT22;54976;51.510;7.522;2023-07-02T10:00:02;22.50;46.80
58638;DHT22;54976;51.510;7.522;2023-07-02T10:03:03;22.60;46.90
58638;DHT22;54976;51.510;7.522;2023-07-02T10:06:07;23.30;45.30
58638;DHT22;54976;51.510;7.522;2023-07-02T10:09:08;23.30;45.20
58638;DHT22;54976;51.510;7.522;2023-07-02T10:12:19;23.10;44.90
58638;DHT22;54976;51.510;7.522;2023-07-02T10:15:27;23.60;45.80
58638;DHT22;54976;51.510;7.522;2023-07-02T10:18:28;23.60;44.10
58638;DHT22;54976;51.510;7.522;2023-07-02T10:21:29;23.70;44.80
58638;DHT22;54976;51.510;7.522;2023-07-02T10:24:30;23.60;45.30
58638;DHT22;54976;51.510;7.522;2023-07-02T10:30:37;22.40;46.40
58638;DHT22;54976;51.510;7.522;2023-07-02T10:33:43;21.70;47.60
58638;DHT22;54976;51.510;7.522;2023-07-02T10:36:44;21.50;47.80
58638;DHT22;54976;51.510;7.522;2023-07-02T10:39:45;21.50;48.60
58638;DHT22;54976;51.510;7.522;2023-07-02T10:42:47;21.40;48.50
58638;DHT22;54976;51.510;7.522;2023-07-02T10:45:47;21.50;48.90
58638;DHT22;54976;51.510;7.522;2023-07-02T10:48:55;21.50;48.20
58638;DHT22;54976;51.510;7.522;2023-07-02T10:52:02;21.70;48.80
58638;DHT22;54976;51.510;7.522;2023-07-02T10:55:08;21.60;48.50
58638;DHT22;54976;51.510;7.522;2023-07-02T10:58:09;21.40;48.70
58638;DHT22;54976;51.510;7.522;2023-07-02T11:01:10;21.40;49.40
58638;DHT22;54976;51.510;7.522;2023-07-02T11:04:10;21.60;49.10
58638;DHT22;54976;51.510;7.522;2023-07-02T11:07:14;21.80;48.10
58638;DHT22;54976;51.510;7.522;2023-07-02T11:10:19;22.00;48.50
58638;DHT22;54976;51.510;7.522;2023-07-02T11:13:20;22.00;47.10
58638;DHT22;54976;51.510;7.522;2023-07-02T11:19:23;22.00;47.30
58638;DHT22;54976;51.510;7.522;2023-07-02T11:22:33;22.20;46.90
58638;DHT22;54976;51.510;7.522;2023-07-02T11:25:34;22.10;46.60
58638;DHT22;54976;51.510;7.522;2023-07-02T11:28:35;22.10;47.60
58638;DHT22;54976;51.510;7.522;2023-07-02T11:31:36;22.20;46.60
58638;DHT22;54976;51.510;7.522;2023-07-02T11:34:38;22.10;46.70
58638;DHT22;54976;51.510;7.522;2023-07-02T11:37:38;22.20;47.50
58638;DHT22;54976;51.510;7.522;2023-07-02T11:40:39;22.20;46.80
58638;DHT22;54976;51.510;7.522;2023-07-02T11:43:40;22.10;46.70
58638;DHT22;54976;51.510;7.522;2023-07-02T11:46:40;22.40;47.70
58638;DHT22;54976;51.510;7.522;2023-07-02T11:49:41;22.70;46.80
58638;DHT22;54976;51.510;7.522;2023-07-02T11:52:41;22.50;45.80
58638;DHT22;54976;51.510;7.522;2023-07-02T11:55:42;22.30;46.80
58638;DHT22;54976;51.510;7.522;2023-07-02T11:58:43;22.30;47.10
58638;DHT22;54976;51.510;7.522;2023-07-02T12:01:43;22.30;47.10
58638;DHT22;54976;51.510;7.522;2023-07-02T12:04:44;22.30;46.20
58638;DHT22;54976;51.510;7.522;2023-07-02T12:07:44;22.40;45.80
58638;DHT22;54976;51.510;7.522;2023-07-02T12:10:45;22.90;46.40
58638;DHT22;54976;51.510;7.522;2023-07-02T12:13:46;23.30;44.60
58638;DHT22;54976;51.510;7.522;2023-07-02T12:16:46;23.90;44.90
58638;DHT22;54976;51.510;7.522;2023-07-02T12:19:47;24.40;43.40
58638;DHT22;54976;51.510;7.522;2023-07-02T12:22:48;24.90;42.50
58638;DHT22;54976;51.510;7.522;2023-07-02T12:25:48;24.80;42.00
58638;DHT22;54976;51.510;7.522;2023-07-02T12:28:49;25.00;42.70
58638;DHT22;54976;51.510;7.522;2023-07-02T12:31:49;25.20;41.40
58638;DHT22;54976;51.510;7.522;2023-07-02T12:34:50;25.90;41.10
58638;DHT22;54976;51.510;7.522;2023-07-02T12:37:52;25.70;40.00
58638;DHT22;54976;51.510;7.522;2023-07-02T12:40:53;25.10;40.10
58638;DHT22;54976;51.510;7.522;2023-07-02T12:43:53;25.60;40.40
58638;DHT22;54976;51.510;7.522;2023-07-02T12:46:54;26.50;39.20
58638;DHT22;54976;51.510;7.522;2023-07-02T12:49:54;27.30;39.10
58638;DHT22;54976;51.510;7.522;2023-07-02T12:52:55;26.70;37.60
58638;DHT22;54976;51.510;7.522;2023-07-02T12:55:55;25.80;38.70
58638;DHT22;54976;51.510;7.522;2023-07-02T12:58:56;25.20;38.20
58638;DHT22;54976;51.510;7.522;2023-07-02T13:01:57;24.80;39.00
58638;DHT22;54976;51.510;7.522;2023-07-02T13:04:57;24.70;38.90
58638;DHT22;54976;51.510;7.522;2023-07-02T13:07:58;25.30;38.30
58638;DHT22;54976;51.510;7.522;2023-07-02T13:10:58;25.10;38.90
58638;DHT22;54976;51.510;7.522;2023-07-02T13:13:59;24.50;38.90
58638;DHT22;54976;51.510;7.522;2023-07-02T13:17:00;24.50;39.10
58638;DHT22;54976;51.510;7.522;2023-07-02T13:20:01;25.00;38.80
58638;DHT22;54976;51.510;7.522;2023-07-02T13:23:03;25.50;38.70
58638;DHT22;54976;51.510;7.522;2023-07-02T13:26:03;25.70;38.50
58638;DHT22;54976;51.510;7.522;2023-07-02T13:29:04;25.30;38.20
58638;DHT22;54976;51.510;7.522;2023-07-02T13:32:05;24.60;40.00
58638;DHT22;54976;51.510;7.522;2023-07-02T13:35:06;24.40;40.10
58638;DHT22;54976;51.510;7.522;2023-07-02T13:38:07;23.90;40.50
58638;DHT22;54976;51.510;7.522;2023-07-02T13:41:08;23.80;41.20
58638;DHT22;54976;51.510;7.522;2023-07-02T13:44:08;23.60;41.40
58638;DHT22;54976;51.510;7.522;2023-07-02T13:47:09;24.10;41.50
58638;DHT22;54976;51.510;7.522;2023-07-02T13:50:11;24.90;40.30
58638;DHT22;54976;51.510;7.522;2023-07-02T13:53:12;25.60;39.80
58638;DHT22;54976;51.510;7.522;2023-07-02T13:56:12;25.80;39.00
58638;DHT22;54976;51.510;7.522;2023-07-02T13:59:14;25.20;39.30
58638;DHT22;54976;51.510;7.522;2023-07-02T14:02:15;25.10;40.10
58638;DHT22;54976;51.510;7.522;2023-07-02T14:05:16;25.90;40.00
58638;DHT22;54976;51.510;7.522;2023-07-02T14:08:17;25.60;39.30
58638;DHT22;54976;51.510;7.522;2023-07-02T14:11:18;25.80;38.50
58638;DHT22;54976;51.510;7.522;2023-07-02T14:14:19;25.60;38.20
58638;DHT22;54976;51.510;7.522;2023-07-02T14:17:19;25.10;38.80
58638;DHT22;54976;51.510;7.522;2023-07-02T14:20:20;24.50;40.30
58638;DHT22;54976;51.510;7.522;2023-07-02T14:23:21;24.00;41.60
58638;DHT22;54976;51.510;7.522;2023-07-02T14:26:21;23.80;41.60
58638;DHT22;54976;51.510;7.522;2023-07-02T14:29:22;23.70;42.50
58638;DHT22;54976;51.510;7.522;2023-07-02T14:32:23;24.10;42.60
58638;DHT22;54976;51.510;7.522;2023-07-02T14:35:23;24.20;42.70
58638;DHT22;54976;51.510;7.522;2023-07-02T14:38:28;24.30;42.50
58638;DHT22;54976;51.510;7.522;2023-07-02T14:41:29;24.40;42.70
58638;DHT22;54976;51.510;7.522;2023-07-02T14:44:35;24.10;43.10
58638;DHT22;54976;51.510;7.522;2023-07-02T14:47:36;23.60;42.30
58638;DHT22;54976;51.510;7.522;2023-07-02T14:50:48;24.10;43.00
58638;DHT22;54976;51.510;7.522;2023-07-02T14:53:50;23.90;42.10
58638;DHT22;54976;51.510;7.522;2023-07-02T14:56:50;23.60;43.10
58638;DHT22;54976;51.510;7.522;2023-07-02T14:59:51;24.20;42.70
58638;DHT22;54976;51.510;7.522;2023-07-02T15:02:52;24.20;42.50
58638;DHT22;54976;51.510;7.522;2023-07-02T15:05:53;24.50;42.50
58638;DHT22;54976;51.510;7.522;2023-07-02T15:08:54;25.30;41.80
58638;DHT22;54976;51.510;7.522;2023-07-02T15:11:55;25.60;40.80
58638;DHT22;54976;51.510;7.522;2023-07-02T15:14:56;25.90;40.00
58638;DHT22;54976;51.510;7.522;2023-07-02T15:17:56;26.00;39.40
58638;DHT22;54976;51.510;7.522;2023-07-02T15:20:57;25.10;40.40
58638;DHT22;54976;51.510;7.522;2023-07-02T15:23:57;24.30;41.60
58638;DHT22;54976;51.510;7.522;2023-07-02T15:26:58;24.30;43.20
58638;DHT22;54976;51.510;7.522;2023-07-02T15:29:59;24.30;43.90
58638;DHT22;54976;51.510;7.522;2023-07-02T15:32:59;24.20;43.00
58638;DHT22;54976;51.510;7.522;2023-07-02T15:36:01;25.00;42.50
58638;DHT22;54976;51.510;7.522;2023-07-02T15:39:03;24.60;42.50
58638;DHT22;54976;51.510;7.522;2023-07-02T15:42:04;24.80;42.80
58638;DHT22;54976;51.510;7.522;2023-07-02T15:45:05;24.60;42.80
58638;DHT22;54976;51.510;7.522;2023-07-02T15:48:08;24.20;43.00
58638;DHT22;54976;51.510;7.522;2023-07-02T15:51:09;23.90;43.80
58638;DHT22;54976;51.510;7.522;2023-07-02T15:54:10;24.40;44.00
58638;DHT22;54976;51.510;7.522;2023-07-02T15:57:10;24.80;43.50
58638;DHT22;54976;51.510;7.522;2023-07-02T16:00:12;24.40;42.70
58638;DHT22;54976;51.510;7.522;2023-07-02T16:03:13;24.40;43.60
58638;DHT22;54976;51.510;7.522;2023-07-02T16:06:14;24.50;43.40
58638;DHT22;54976;51.510;7.522;2023-07-02T16:09:15;25.00;42.30
58638;DHT22;54976;51.510;7.522;2023-07-02T16:12:15;24.80;42.40
58638;DHT22;54976;51.510;7.522;2023-07-02T16:15:16;24.50;43.50
58638;DHT22;54976;51.510;7.522;2023-07-02T16:18:17;24.50;43.00
58638;DHT22;54976;51.510;7.522;2023-07-02T16:21:17;24.70;42.80
58638;DHT22;54976;51.510;7.522;2023-07-02T16:27:21;25.00;41.80
58638;DHT22;54976;51.510;7.522;2023-07-02T16:30:21;24.70;42.70
58638;DHT22;54976;51.510;7.522;2023-07-02T16:33:22;24.50;42.50
58638;DHT22;54976;51.510;7.522;2023-07-02T16:36:23;24.40;42.20
58638;DHT22;54976;51.510;7.522;2023-07-02T16:39:24;23.90;42.90
58638;DHT22;54976;51.510;7.522;2023-07-02T16:42:25;23.40;43.30
58638;DHT22;54976;51.510;7.522;2023-07-02T16:45:25;23.30;43.70
58638;DHT22;54976;51.510;7.522;2023-07-02T16:48:26;23.50;44.30
58638;DHT22;54976;51.510;7.522;2023-07-02T16:51:26;23.60;44.20
58638;DHT22;54976;51.510;7.522;2023-07-02T16:54:27;23.30;44.60
58638;DHT22;54976;51.510;7.522;2023-07-02T16:57:27;23.10;45.20
58638;DHT22;54976;51.510;7.522;2023-07-02T17:00:28;23.00;44.70
58638;DHT22;54976;51.510;7.522;2023-07-02T17:03:29;22.70;44.80
58638;DHT22;54976;51.510;7.522;2023-07-02T17:06:29;22.60;45.30
58638;DHT22;54976;51.510;7.522;2023-07-02T17:09:37;22.50;45.00
58638;DHT22;54976;51.510;7.522;2023-07-02T17:12:40;22.40;45.40
58638;DHT22;54976;51.510;7.522;2023-07-02T17:15:41;22.30;46.10
58638;DHT22;54976;51.510;7.522;2023-07-02T17:18:42;22.20;46.60
58638;DHT22;54976;51.510;7.522;2023-07-02T17:21:42;22.10;46.60
58638;DHT22;54976;51.510;7.522;2023-07-02T17:24:45;22.00;46.40
58638;DHT22;54976;51.510;7.522;2023-07-02T17:27:46;21.80;46.60
58638;DHT22;54976;51.510;7.522;2023-07-02T17:30:46;21.70;47.40
58638;DHT22;54976;51.510;7.522;2023-07-02T17:33:48;21.80;47.90
58638;DHT22;54976;51.510;7.522;2023-07-02T17:36:54;21.80;47.60
58638;DHT22;54976;51.510;7.522;2023-07-02T17:39:55;21.90;47.90
58638;DHT22;54976;51.510;7.522;2023-07-02T17:42:56;21.80;48.00
58638;DHT22;54976;51.510;7.522;2023-07-02T17:45:57;21.80;47.60
58638;DHT22;54976;51.510;7.522;2023-07-02T17:48:57;21.60;47.50
58638;DHT22;54976;51.510;7.522;2023-07-02T17:51:58;21.60;46.70
58638;DHT22;54976;51.510;7.522;2023-07-02T17:54:59;21.60;46.90
58638;DHT22;54976;51.510;7.522;2023-07-02T17:58:00;21.50;46.70
58638;DHT22;54976;51.510;7.522;2023-07-02T18:01:01;21.40;46.80
58638;DHT22;54976;51.510;7.522;2023-07-02T18:04:02;21.50;47.30
58638;DHT22;54976;51.510;7.522;2023-07-02T18:07:13;21.40;46.80
58638;DHT22;54976;51.510;7.522;2023-07-02T18:10:14;21.50;47.00
58638;DHT22;54976;51.510;7.522;2023-07-02T18:13:15;21.40;46.90
58638;DHT22;54976;51.510;7.522;2023-07-02T18:16:17;21.30;47.30
58638;DHT22;54976;51.510;7.522;2023-07-02T18:19:17;21.20;47.20
58638;DHT22;54976;51.510;7.522;2023-07-02T18:22:18;21.30;48.00
58638;DHT22;54976;51.510;7.522;2023-07-02T18:25:18;21.20;47.70
58638;DHT22;54976;51.510;7.522;2023-07-02T18:28:19;21.20;48.20
58638;DHT22;54976;51.510;7.522;2023-07-02T18:31:20;21.00;48.70
58638;DHT22;54976;51.510;7.522;2023-07-02T18:34:21;20.90;48.60
58638;DHT22;54976;51.510;7.522;2023-07-02T18:37:21;20.80;48.70
58638;DHT22;54976;51.510;7.522;2023-07-02T18:40:24;20.70;48.90
58638;DHT22;54976;51.510;7.522;2023-07-02T18:43:24;20.70;49.20
58638;DHT22;54976;51.510;7.522;2023-07-02T18:46:25;20.60;49.40
58638;DHT22;54976;51.510;7.522;2023-07-02T18:49:26;20.50;49.60
58638;DHT22;54976;51.510;7.522;2023-07-02T18:52:27;20.50;49.80
58638;DHT22;54976;51.510;7.522;2023-07-02T18:55:28;20.50;50.20
58638;DHT22;54976;51.510;7.522;2023-07-02T18:58:29;20.40;50.30
58638;DHT22;54976;51.510;7.522;2023-07-02T19:01:30;20.30;51.00
58638;DHT22;54976;51.510;7.522;2023-07-02T19:04:31;20.30;50.80
58638;DHT22;54976;51.510;7.522;2023-07-02T19:07:33;20.30;51.60
58638;DHT22;54976;51.510;7.522;2023-07-02T19:10:34;20.20;51.80
58638;DHT22;54976;51.510;7.522;2023-07-02T19:13:35;20.30;51.80